Time;durP1;ratioP1;P1;durP2;ratioP2;P2;SDS_P1;SDS_P2;PMS_P1;PMS_P2;Temp;Humidity;BMP_temperature;BMP_pressure;BME280_temperature;BME280_humidity;BME280_pressure;Samples;Min_cycle;Max_cycle;Signal;HPM_P1;HPM_P2
2023/05/29 00:00:29;;;;;;;2.70;1.15;;;18.60;73.90;;;;;;4945649;29;20230;-74
2023/05/29 00:02:54;;;;;;;5.32;1.20;;;18.50;73.90;;;;;;4862365;29;20072;-73
2023/05/29 00:05:26;;;;;;;4.88;1.33;;;18.50;73.80;;;;;;4868252;29;20072;-73
2023/05/29 00:07:55;;;;;;;6.95;1.52;;;18.50;73.70;;;;;;4915790;29;20055;-74
2023/05/29 00:10:21;;;;;;;3.30;1.80;;;18.50;73.80;;;;;;4948266;29;20028;-74
2023/05/29 00:13:07;;;;;;;4.78;1.95;;;18.40;73.50;;;;;;4933856;29;20040;-74
2023/05/29 00:15:48;;;;;;;1.60;0.85;;;18.50;73.60;;;;;;4948446;29;20126;-73
2023/05/29 00:18:45;;;;;;;3.35;1.50;;;18.50;73.60;;;;;;4941027;29;20078;-74
2023/05/29 00:21:25;;;;;;;2.72;1.20;;;18.50;73.60;;;;;;4912556;29;20047;-73
2023/05/29 00:24:52;;;;;;;3.45;1.55;;;18.50;73.70;;;;;;4940809;29;20114;-73
2023/05/29 00:27:23;;;;;;;3.25;1.30;;;18.30;74.10;;;;;;4865194;29;20049;-74
2023/05/29 00:29:49;;;;;;;6.32;1.58;;;18.30;74.20;;;;;;4862881;29;20036;-73
2023/05/29 00:32:15;;;;;;;2.45;1.33;;;18.20;74.40;;;;;;4868189;29;20429;-74
2023/05/29 00:35:13;;;;;;;4.22;1.23;;;18.10;74.80;;;;;;4955716;28;20114;-74
2023/05/29 00:37:39;;;;;;;3.63;1.40;;;18.10;75.20;;;;;;4932035;28;20058;-74
2023/05/29 00:40:17;;;;;;;4.97;1.55;;;18.00;75.80;;;;;;4966294;28;20031;-74
2023/05/29 00:42:52;;;;;;;2.33;1.40;;;17.90;76.10;;;;;;4927795;29;20086;-73
2023/05/29 00:45:23;;;;;;;2.80;1.33;;;17.80;76.70;;;;;;5024338;28;20061;-74
2023/05/29 00:47:49;;;;;;;2.72;1.23;;;17.70;77.50;;;;;;5032863;28;20021;-73
2023/05/29 00:50:15;;;;;;;4.10;1.48;;;17.60;77.80;;;;;;5048082;28;20033;-73
2023/05/29 00:52:50;;;;;;;3.83;1.63;;;17.60;78.10;;;;;;5014713;28;20022;-73
2023/05/29 00:55:23;;;;;;;3.72;1.58;;;17.60;78.00;;;;;;5030069;28;20114;-73
2023/05/29 00:58:16;;;;;;;2.17;1.17;;;17.50;77.90;;;;;;5032876;28;20029;-74
2023/05/29 01:00:55;;;;;;;3.55;1.52;;;17.50;78.10;;;;;;5038708;28;20072;-75
2023/05/29 01:03:41;;;;;;;2.17;1.20;;;17.50;78.40;;;;;;5015513;28;20091;-74
2023/05/29 01:06:58;;;;;;;2.60;1.15;;;17.50;78.30;;;;;;5011602;28;20127;-74
2023/05/29 01:09:36;;;;;;;4.72;1.33;;;17.40;78.80;;;;;;5026033;28;20381;-74
2023/05/29 01:13:07;;;;;;;5.55;1.45;;;17.20;79.60;;;;;;5027973;28;20094;-74
2023/05/29 01:20:05;;;;;;;6.15;1.92;;;17.10;80.30;;;;;;5028322;28;20034;-76
2023/05/29 01:26:31;;;;;;;6.43;1.63;;;16.70;82.30;;;;;;5018626;28;20029;-73
2023/05/29 01:29:31;;;;;;;1.95;1.08;;;16.80;81.90;;;;;;5012172;28;20141;-73
2023/05/29 01:32:06;;;;;;;2.17;1.23;;;16.80;82.10;;;;;;4996970;28;20075;-73
2023/05/29 01:34:32;;;;;;;3.15;1.35;;;16.80;82.40;;;;;;5025242;28;20036;-72
2023/05/29 01:37:27;;;;;;;4.60;1.27;;;16.70;82.60;;;;;;5033895;28;20105;-73
2023/05/29 01:39:56;;;;;;;7.30;1.70;;;16.70;83.10;;;;;;5017812;28;20058;-73
2023/05/29 01:42:59;;;;;;;2.25;1.23;;;16.60;83.90;;;;;;5013020;28;20080;-73
2023/05/29 01:45:25;;;;;;;3.28;1.13;;;16.50;84.60;;;;;;5045902;28;20040;-74
2023/05/29 01:48:00;;;;;;;8.10;1.58;;;16.50;85.40;;;;;;5010633;28;20084;-73
2023/05/29 01:50:27;;;;;;;3.10;1.33;;;16.40;86.30;;;;;;5010666;28;20453;-74
2023/05/29 01:52:54;;;;;;;6.82;1.98;;;16.30;87.10;;;;;;5021504;28;20124;-74
2023/05/29 01:55:35;;;;;;;6.90;1.35;;;16.30;88.00;;;;;;5028835;28;20450;-74
2023/05/29 01:58:37;;;;;;;4.18;1.63;;;16.20;88.50;;;;;;5038954;28;20057;-73
2023/05/29 02:01:15;;;;;;;3.75;1.33;;;16.10;89.50;;;;;;4917960;29;20043;-73
2023/05/29 02:03:41;;;;;;;5.88;1.35;;;16.00;90.10;;;;;;4941860;29;20035;-74
2023/05/29 02:06:13;;;;;;;3.38;1.80;;;16.00;90.50;;;;;;4943178;29;20051;-73
2023/05/29 02:08:51;;;;;;;2.65;1.48;;;15.90;90.80;;;;;;4925760;29;20114;-73
2023/05/29 02:11:29;;;;;;;4.60;1.38;;;15.80;91.10;;;;;;4942511;29;20059;-74
2023/05/29 02:13:54;;;;;;;2.83;1.10;;;15.70;91.50;;;;;;4932482;29;20047;-74
2023/05/29 02:16:20;;;;;;;3.95;1.80;;;15.70;91.80;;;;;;4930716;29;20381;-73
2023/05/29 02:18:53;;;;;;;8.75;1.52;;;15.60;92.00;;;;;;4941914;29;20062;-73
2023/05/29 02:21:21;;;;;;;3.10;1.40;;;15.50;92.30;;;;;;4926144;29;20463;-73
2023/05/29 02:24:02;;;;;;;5.43;1.70;;;15.50;92.70;;;;;;4941990;29;20086;-73
2023/05/29 02:26:31;;;;;;;2.92;1.38;;;15.40;93.00;;;;;;4941487;29;20043;-73
2023/05/29 02:28:57;;;;;;;3.65;1.77;;;15.40;93.20;;;;;;4925787;29;20094;-73
2023/05/29 02:31:55;;;;;;;3.58;1.73;;;15.40;93.50;;;;;;4941865;29;20047;-73
2023/05/29 02:34:30;;;;;;;3.70;1.80;;;15.30;94.30;;;;;;4885091;29;20041;-74
2023/05/29 02:36:59;;;;;;;4.68;1.48;;;15.30;94.40;;;;;;4877177;28;20142;-73
2023/05/29 02:39:40;;;;;;;7.82;1.65;;;15.20;94.70;;;;;;4961074;28;20494;-73
2023/05/29 02:42:55;;;;;;;3.35;1.20;;;15.20;95.10;;;;;;4960590;28;20047;-73
2023/05/29 02:45:21;;;;;;;5.70;1.20;;;15.10;95.50;;;;;;4895799;28;20097;-73
2023/05/29 02:47:47;;;;;;;2.78;1.38;;;15.00;96.00;;;;;;4950467;28;20542;-72
2023/05/29 02:50:48;;;;;;;3.80;1.67;;;14.90;96.50;;;;;;4965182;28;20027;-73
2023/05/29 02:53:29;;;;;;;3.25;1.38;;;15.00;96.90;;;;;;4911549;29;20040;-73
2023/05/29 02:55:57;;;;;;;2.65;1.38;;;14.80;97.40;;;;;;4897466;29;20048;-73
2023/05/29 02:58:42;;;;;;;4.97;1.63;;;14.70;97.80;;;;;;4948090;28;20046;-73
2023/05/29 03:01:32;;;;;;;4.30;1.77;;;14.70;98.20;;;;;;4949180;28;20509;-72
2023/05/29 03:04:53;;;;;;;2.30;1.55;;;14.60;98.40;;;;;;4873691;29;20044;-73
2023/05/29 03:07:40;;;;;;;4.17;1.63;;;14.40;99.00;;;;;;4932205;28;20532;-73
2023/05/29 03:10:12;;;;;;;4.40;2.35;;;14.30;99.70;;;;;;4965215;28;20035;-72
2023/05/29 03:12:39;;;;;;;3.63;1.23;;;14.30;99.90;;;;;;5029806;28;20037;-72
2023/05/29 03:15:05;;;;;;;5.00;1.80;;;14.20;99.90;;;;;;5036586;28;20036;-74
2023/05/29 03:17:38;;;;;;;2.90;1.27;;;14.10;99.90;;;;;;5029537;28;20033;-73
2023/05/29 03:20:26;;;;;;;8.18;1.60;;;14.10;99.90;;;;;;5044386;28;20040;-73
2023/05/29 03:22:57;;;;;;;3.28;1.50;;;14.10;99.90;;;;;;5024020;23;20049;-78
2023/05/29 03:25:26;;;;;;;4.47;1.60;;;14.10;99.90;;;;;;5014530;28;20375;-78
2023/05/29 03:27:52;;;;;;;5.75;1.67;;;14.10;99.90;;;;;;5019470;28;20038;-77
2023/05/29 03:30:30;;;;;;;2.38;1.70;;;14.10;99.90;;;;;;5030332;28;20033;-77
2023/05/29 03:32:56;;;;;;;2.97;1.35;;;14.10;99.90;;;;;;5008611;28;20041;-77
2023/05/29 03:35:27;;;;;;;3.40;1.48;;;14.20;99.90;;;;;;5014243;28;20532;-77
2023/05/29 03:38:00;;;;;;;3.65;1.50;;;14.20;99.90;;;;;;4992692;28;20050;-77
2023/05/29 03:40:28;;;;;;;4.20;1.20;;;14.30;99.90;;;;;;5013676;28;20029;-77
2023/05/29 03:42:57;;;;;;;3.75;1.20;;;14.20;99.90;;;;;;5002193;28;20038;-78
2023/05/29 03:45:35;;;;;;;4.90;1.65;;;14.30;99.90;;;;;;5012428;28;20037;-77
2023/05/29 03:48:51;;;;;;;4.07;1.77;;;14.20;99.90;;;;;;5010071;28;20042;-78
2023/05/29 03:51:26;;;;;;;3.83;2.15;;;14.30;99.90;;;;;;4895495;29;20068;-78
2023/05/29 03:54:05;;;;;;;4.53;1.55;;;14.30;99.90;;;;;;4901140;29;20038;-78
2023/05/29 03:56:49;;;;;;;4.20;1.63;;;14.40;99.90;;;;;;4911721;29;20045;-78
2023/05/29 03:59:15;;;;;;;2.75;1.50;;;14.50;99.80;;;;;;4914248;29;20047;-78
2023/05/29 04:01:40;;;;;;;3.15;1.70;;;14.40;99.80;;;;;;4946225;28;20050;-78
2023/05/29 04:04:10;;;;;;;4.53;1.85;;;14.50;99.80;;;;;;5013161;28;20034;-78
2023/05/29 04:06:38;;;;;;;3.92;1.83;;;14.50;99.80;;;;;;5009652;28;20080;-78
2023/05/29 04:12:09;;;;;;;4.53;1.65;;;14.40;99.90;;;;;;4948638;28;20043;-78
2023/05/29 04:14:44;;;;;;;2.53;1.45;;;14.40;99.90;;;;;;4948139;29;20465;-78
2023/05/29 04:17:16;;;;;;;5.07;1.60;;;14.40;99.90;;;;;;4949164;29;20453;-78
2023/05/29 04:19:51;;;;;;;5.05;1.65;;;14.50;99.90;;;;;;4951885;29;20043;-78
2023/05/29 04:22:52;;;;;;;2.97;1.63;;;14.50;99.90;;;;;;4963472;28;20042;-78
2023/05/29 04:25:18;;;;;;;;;;;14.50;99.90;;;;;;4986593;28;20045;-78
2023/05/29 04:28:26;;;;;;;4.85;1.55;;;14.50;99.90;;;;;;5007924;28;19917;-77
2023/05/29 04:30:52;;;;;;;5.90;1.52;;;14.50;99.90;;;;;;4895466;29;20508;-76
2023/05/29 04:33:30;;;;;;;4.57;1.52;;;14.40;99.90;;;;;;4910037;29;20032;-78
2023/05/29 04:36:03;;;;;;;2.20;1.08;;;14.40;99.90;;;;;;4875849;29;20079;-77
2023/05/29 04:38:30;;;;;;;4.07;1.30;;;14.50;99.90;;;;;;4909780;29;20063;-78
2023/05/29 04:40:58;;;;;;;5.20;1.80;;;14.40;99.90;;;;;;4913489;29;20036;-77
2023/05/29 04:43:51;;;;;;;5.70;1.48;;;14.50;99.90;;;;;;5008001;28;20048;-78
2023/05/29 04:46:57;;;;;;;3.40;1.40;;;14.50;99.90;;;;;;4904567;29;20044;-78
2023/05/29 04:50:03;;;;;;;4.28;1.15;;;14.50;99.90;;;;;;4873288;29;20128;-77
2023/05/29 04:52:37;;;;;;;3.42;1.67;;;14.60;99.90;;;;;;4878034;29;20183;-78
2023/05/29 04:56:04;;;;;;;2.58;1.45;;;14.70;99.90;;;;;;4913637;29;20055;-77
2023/05/29 04:58:54;;;;;;;1.98;1.20;;;14.70;99.90;;;;;;4836004;29;20046;-78
2023/05/29 05:01:19;;;;;;;2.72;1.40;;;14.70;99.90;;;;;;4875903;29;20032;-78
2023/05/29 05:03:55;;;;;;;3.85;1.70;;;14.80;99.90;;;;;;4912905;29;20051;-78
2023/05/29 05:06:37;;;;;;;3.08;1.40;;;14.90;99.90;;;;;;4910498;29;20055;-78
2023/05/29 05:09:12;;;;;;;3.08;1.23;;;14.90;99.90;;;;;;4913012;29;20048;-77
2023/05/29 05:12:19;;;;;;;5.43;1.60;;;15.00;99.90;;;;;;4910041;29;20132;-78
2023/05/29 05:14:44;;;;;;;3.45;1.45;;;15.00;99.90;;;;;;4898264;29;20053;-77
2023/05/29 05:17:13;;;;;;;2.40;1.27;;;15.10;99.90;;;;;;4900909;29;20080;-78
2023/05/29 05:19:44;;;;;;;6.60;1.63;;;15.10;99.90;;;;;;4912720;29;20132;-77
2023/05/29 05:22:10;;;;;;;3.60;1.95;;;15.10;99.90;;;;;;4912898;28;20389;-78
2023/05/29 05:24:59;;;;;;;3.72;1.73;;;15.10;99.90;;;;;;5011467;28;20088;-78
2023/05/29 05:27:28;;;;;;;5.95;1.65;;;15.10;99.90;;;;;;5008509;28;20169;-78
2023/05/29 05:30:06;;;;;;;4.78;1.52;;;15.20;99.90;;;;;;5011731;28;20029;-78
2023/05/29 05:32:35;;;;;;;4.60;1.65;;;15.30;99.90;;;;;;5007850;28;20163;-78
2023/05/29 05:35:11;;;;;;;4.10;1.80;;;15.40;99.90;;;;;;5011678;28;20091;-77
2023/05/29 05:37:40;;;;;;;2.95;1.20;;;15.40;99.90;;;;;;5007890;28;20033;-78
2023/05/29 05:40:30;;;;;;;5.45;1.30;;;15.40;99.90;;;;;;5011615;28;20037;-78
2023/05/29 05:43:06;;;;;;;6.47;1.30;;;15.50;99.90;;;;;;5007997;28;20440;-78
2023/05/29 05:46:13;;;;;;;6.13;2.42;;;15.50;99.90;;;;;;5011398;28;20315;-78
2023/05/29 05:48:45;;;;;;;2.60;1.42;;;15.70;99.90;;;;;;4910687;29;20531;-78
2023/05/29 05:51:24;;;;;;;2.50;1.48;;;15.80;99.90;;;;;;4910296;29;20125;-78
2023/05/29 05:54:05;;;;;;;4.55;1.17;;;16.00;99.90;;;;;;4898776;29;20032;-78
2023/05/29 05:56:33;;;;;;;3.90;1.60;;;16.00;99.90;;;;;;4909606;29;20750;-78
2023/05/29 05:59:30;;;;;;;3.10;1.38;;;16.10;99.70;;;;;;4896175;29;20165;-78
2023/05/29 06:02:03;;;;;;;2.97;1.38;;;16.20;99.90;;;;;;4889181;29;20040;-78
2023/05/29 06:04:32;;;;;;;5.82;1.13;;;16.30;99.80;;;;;;4912278;29;20603;-77
2023/05/29 06:07:24;;;;;;;2.58;1.38;;;16.40;99.70;;;;;;4909401;29;20044;-78
2023/05/29 06:10:49;;;;;;;5.30;1.83;;;16.50;99.40;;;;;;4905370;29;20551;-78
2023/05/29 06:13:20;;;;;;;3.08;1.77;;;16.60;99.40;;;;;;4909112;29;20055;-78
2023/05/29 06:16:34;;;;;;;4.40;1.25;;;16.70;99.30;;;;;;4878554;29;20044;-77
2023/05/29 06:19:06;;;;;;;5.38;1.20;;;17.00;98.20;;;;;;4896215;29;20048;-78
2023/05/29 06:21:44;;;;;;;3.30;1.50;;;17.00;98.30;;;;;;4908933;29;20509;-78
2023/05/29 06:24:12;;;;;;;7.82;2.20;;;17.20;98.50;;;;;;4962790;28;20042;-77
2023/05/29 06:26:39;;;;;;;4.40;1.30;;;17.30;98.60;;;;;;5007296;28;20034;-77
2023/05/29 06:29:31;;;;;;;4.57;1.20;;;17.40;98.40;;;;;;5010716;28;20114;-77
2023/05/29 06:31:57;;;;;;;3.17;1.35;;;17.50;98.10;;;;;;4909007;29;20556;-77
2023/05/29 06:34:31;;;;;;;6.35;1.33;;;17.50;97.70;;;;;;4998741;28;20048;-77
2023/05/29 06:36:57;;;;;;;3.65;1.38;;;17.60;98.00;;;;;;4988552;28;20080;-77
2023/05/29 06:39:23;;;;;;;5.10;1.70;;;17.60;98.00;;;;;;5010694;28;20079;-77
2023/05/29 06:41:58;;;;;;;5.65;1.63;;;17.70;97.90;;;;;;5007433;28;20060;-76
2023/05/29 06:44:36;;;;;;;2.72;1.17;;;17.70;98.10;;;;;;5010737;28;20108;-77
2023/05/29 06:47:05;;;;;;;3.63;1.80;;;17.70;98.10;;;;;;5007282;28;20038;-77
2023/05/29 06:49:34;;;;;;;3.85;1.60;;;17.70;98.30;;;;;;5010483;28;20038;-77
2023/05/29 06:52:47;;;;;;;2.55;1.20;;;17.80;98.30;;;;;;5007299;28;20208;-77
2023/05/29 06:55:13;;;;;;;2.97;1.25;;;17.80;98.50;;;;;;4895228;29;20060;-77
2023/05/29 06:57:39;;;;;;;2.88;1.23;;;17.90;98.60;;;;;;4902354;29;20036;-77
2023/05/29 07:00:10;;;;;;;4.75;1.50;;;18.00;98.60;;;;;;4912968;29;20149;-77
2023/05/29 07:03:05;;;;;;;;;;;18.00;98.40;;;;;;4911237;29;20120;-77
2023/05/29 07:05:34;;;;;;;2.72;1.25;;;18.10;98.20;;;;;;4911141;29;19919;-77
2023/05/29 07:08:07;;;;;;;2.70;1.23;;;18.20;98.10;;;;;;4910556;29;20048;-77
2023/05/29 07:10:35;;;;;;;3.90;1.60;;;18.30;98.10;;;;;;4915514;29;20035;-77
2023/05/29 07:13:07;;;;;;;2.97;1.20;;;18.40;97.90;;;;;;4910428;29;20099;-77
2023/05/29 07:15:33;;;;;;;3.05;1.52;;;18.40;97.90;;;;;;4915202;29;20119;-76
2023/05/29 07:18:17;;;;;;;4.30;1.20;;;18.50;98.00;;;;;;4910265;29;20554;-77
2023/05/29 07:20:45;;;;;;;7.00;1.33;;;18.60;98.00;;;;;;4915188;29;20084;-77
2023/05/29 07:23:14;;;;;;;3.67;1.27;;;18.70;97.30;;;;;;4910921;29;20248;-77
2023/05/29 07:25:46;;;;;;;3.20;1.60;;;18.70;97.30;;;;;;4915193;29;20044;-78
2023/05/29 07:28:43;;;;;;;3.55;1.48;;;18.80;97.30;;;;;;4910776;29;20051;-78
2023/05/29 07:31:15;;;;;;;4.47;2.17;;;19.00;96.70;;;;;;4916321;28;20066;-77
2023/05/29 07:33:47;;;;;;;5.18;1.50;;;19.00;95.20;;;;;;5013529;28;20390;-78
2023/05/29 07:36:40;;;;;;;2.90;1.48;;;19.00;95.60;;;;;;5009494;28;20045;-78
2023/05/29 07:39:15;;;;;;;4.35;1.60;;;19.20;94.40;;;;;;4989709;28;20047;-78
2023/05/29 07:41:41;;;;;;;2.72;1.30;;;19.40;94.40;;;;;;5008850;28;20036;-78
2023/05/29 07:44:28;;;;;;;2.22;1.25;;;19.60;94.30;;;;;;5013820;28;20025;-78
2023/05/29 07:46:57;;;;;;;2.83;1.20;;;19.80;94.20;;;;;;4991119;28;20069;-78
2023/05/29 07:49:23;;;;;;;3.53;1.50;;;19.90;93.60;;;;;;5013422;28;20112;-78
2023/05/29 07:51:48;;;;;;;3.63;1.60;;;20.00;92.50;;;;;;5008380;28;20490;-77
2023/05/29 07:54:39;;;;;;;3.95;1.48;;;20.10;92.30;;;;;;5013430;28;20026;-77
2023/05/29 08:00:15;;;;;;;2.53;1.20;;;20.30;92.30;;;;;;4979063;28;20081;-76
2023/05/29 08:02:42;;;;;;;3.75;1.40;;;20.50;92.30;;;;;;5004339;28;20311;-77
2023/05/29 08:05:11;;;;;;;2.78;1.15;;;20.50;91.40;;;;;;5013441;28;20398;-77
2023/05/29 08:07:37;;;;;;;2.83;0.93;;;20.50;91.00;;;;;;5007876;28;20374;-77
2023/05/29 08:10:15;;;;;;;3.55;1.50;;;20.60;91.50;;;;;;5013304;28;20033;-77
2023/05/29 08:13:04;;;;;;;6.22;2.08;;;20.90;91.60;;;;;;5007680;28;20041;-77
2023/05/29 08:15:31;;;;;;;2.78;1.42;;;21.10;91.30;;;;;;4982043;28;20126;-77
2023/05/29 08:17:57;;;;;;;6.43;1.52;;;21.30;91.00;;;;;;5006208;28;20065;-77
2023/05/29 08:21:02;;;;;;;2.78;1.55;;;21.30;90.40;;;;;;5013086;28;20156;-77
2023/05/29 08:24:02;;;;;;;3.15;1.50;;;21.30;90.30;;;;;;4909612;29;20040;-77
2023/05/29 08:26:43;;;;;;;1.25;0.77;;;21.40;90.20;;;;;;4863668;29;20044;-77
2023/05/29 08:29:15;;;;;;;2.45;1.10;;;21.40;89.70;;;;;;4913969;29;20119;-76
2023/05/29 08:31:53;;;;;;;3.00;1.48;;;21.50;89.50;;;;;;4909255;29;20115;-77
2023/05/29 08:34:21;;;;;;;4.18;1.30;;;21.60;88.90;;;;;;4914027;29;20050;-77
2023/05/29 08:37:10;;;;;;;3.70;1.40;;;21.80;88.30;;;;;;4909209;29;20032;-77
2023/05/29 08:40:28;;;;;;;3.35;1.50;;;22.00;87.90;;;;;;4857272;29;20520;-78
2023/05/29 08:43:22;;;;;;;2.35;1.25;;;22.00;87.30;;;;;;4833979;29;20081;-77
2023/05/29 08:45:56;;;;;;;3.28;1.08;;;22.20;86.20;;;;;;4821288;29;20046;-77
2023/05/29 08:48:25;;;;;;;3.45;1.25;;;22.30;86.00;;;;;;4836911;29;20050;-77
2023/05/29 08:54:14;;;;;;;2.13;1.00;;;22.40;86.60;;;;;;4784644;30;20067;-77
2023/05/29 08:56:58;;;;;;;6.57;1.52;;;22.50;85.10;;;;;;4765428;30;20499;-77
2023/05/29 08:59:34;;;;;;;18.35;7.30;;;22.60;84.80;;;;;;4808820;29;20050;-77
2023/05/29 09:02:00;;;;;;;3.05;1.63;;;22.70;84.50;;;;;;4805337;29;20083;-77
2023/05/29 09:04:56;;;;;;;2.58;1.15;;;22.90;83.30;;;;;;4826579;29;20487;-77
2023/05/29 09:07:30;;;;;;;4.88;1.42;;;23.00;82.90;;;;;;4846378;29;20161;-75
2023/05/29 09:10:00;;;;;;;2.50;1.20;;;23.20;82.30;;;;;;4856890;29;20121;-76
2023/05/29 09:12:27;;;;;;;3.72;1.60;;;23.40;82.70;;;;;;4852271;29;20045;-77
2023/05/29 09:15:03;;;;;;;3.70;1.13;;;23.50;82.60;;;;;;4857101;29;20034;-77
2023/05/29 09:17:38;;;;;;;3.03;1.13;;;23.50;82.30;;;;;;4915844;29;20550;-77
2023/05/29 09:20:17;;;;;;;5.97;1.65;;;23.70;82.70;;;;;;4916170;29;20035;-77
2023/05/29 09:23:14;;;;;;;3.60;2.03;;;24.00;80.60;;;;;;4925715;29;20040;-77
2023/05/29 09:28:55;;;;;;;5.45;1.40;;;24.40;80.50;;;;;;4927479;29;20059;-77
2023/05/29 09:31:24;;;;;;;2.63;1.35;;;24.60;78.30;;;;;;4924298;29;20523;-77
2023/05/29 09:33:51;;;;;;;5.60;1.40;;;24.70;79.20;;;;;;4932038;29;20134;-77
2023/05/29 09:36:23;;;;;;;3.53;1.40;;;24.60;76.90;;;;;;4918699;29;20036;-77
2023/05/29 09:39:01;;;;;;;2.45;1.30;;;24.80;76.80;;;;;;4914973;29;20048;-77
2023/05/29 09:42:01;;;;;;;2.65;1.10;;;24.90;77.00;;;;;;4926800;29;20043;-77
2023/05/29 09:44:36;;;;;;;3.13;1.50;;;25.10;75.30;;;;;;4978823;28;20125;-77
2023/05/29 09:47:18;;;;;;;3.22;1.40;;;25.20;76.30;;;;;;5006412;28;20042;-76
2023/05/29 09:50:10;;;;;;;3.47;1.52;;;25.20;74.30;;;;;;4991897;28;20058;-77
2023/05/29 09:52:58;;;;;;;4.07;1.52;;;25.40;75.90;;;;;;4983710;28;20126;-77
2023/05/29 09:55:36;;;;;;;1.95;0.82;;;25.60;74.50;;;;;;5011566;28;20077;-77
2023/05/29 09:58:02;;;;;;;4.25;1.63;;;25.60;72.70;;;;;;4985206;28;20038;-77
2023/05/29 10:00:28;;;;;;;4.30;1.10;;;25.60;70.90;;;;;;4993736;28;20030;-77
2023/05/29 10:03:16;;;;;;;2.08;1.17;;;25.70;70.40;;;;;;4984987;28;20398;-77
2023/05/29 10:05:59;;;;;;;2.00;1.17;;;25.90;71.90;;;;;;4993522;28;20044;-77
2023/05/29 10:08:27;;;;;;;2.15;1.55;;;26.10;72.40;;;;;;4990204;28;20038;-76
2023/05/29 10:11:29;;;;;;;3.50;1.33;;;26.10;71.20;;;;;;4991886;28;20026;-76
2023/05/29 10:14:24;;;;;;;6.35;1.48;;;26.30;70.40;;;;;;4982502;28;20492;-77
2023/05/29 10:17:08;;;;;;;2.72;1.30;;;26.30;68.40;;;;;;4989221;28;20405;-76
2023/05/29 10:20:00;;;;;;;5.57;1.50;;;26.30;67.70;;;;;;5010990;28;20473;-76
2023/05/29 10:22:33;;;;;;;4.03;1.10;;;26.60;69.20;;;;;;4980201;28;20460;-77
2023/05/29 10:25:03;;;;;;;4.80;1.92;;;26.80;67.40;;;;;;4989787;28;20497;-77
2023/05/29 10:27:42;;;;;;;2.60;1.17;;;26.70;66.70;;;;;;4986390;28;20034;-77
2023/05/29 10:30:56;;;;;;;4.82;1.77;;;26.70;66.00;;;;;;5010643;28;20044;-77
2023/05/29 10:33:41;;;;;;;4.97;1.70;;;26.70;65.70;;;;;;4989425;28;20057;-76
2023/05/29 10:36:36;;;;;;;3.15;1.33;;;26.30;66.00;;;;;;4989542;28;20030;-76
2023/05/29 10:39:02;;;;;;;4.88;1.27;;;26.40;66.60;;;;;;4989988;28;20472;-76
2023/05/29 10:41:33;;;;;;;3.00;1.30;;;26.70;66.80;;;;;;4988084;28;20106;-75
2023/05/29 10:44:46;;;;;;;3.90;1.40;;;26.90;64.40;;;;;;4977061;28;20037;-76
2023/05/29 10:47:39;;;;;;;3.03;1.40;;;26.90;64.10;;;;;;4960617;28;20057;-76
2023/05/29 10:50:12;;;;;;;3.22;1.67;;;26.90;64.00;;;;;;4958232;28;20048;-75
2023/05/29 10:52:50;;;;;;;2.88;1.00;;;27.00;63.40;;;;;;5000930;28;20030;-76
2023/05/29 10:55:16;;;;;;;3.55;1.30;;;27.20;65.50;;;;;;4992923;28;20032;-76
2023/05/29 10:57:50;;;;;;;2.70;1.33;;;27.30;63.30;;;;;;5005414;28;20095;-76
2023/05/29 11:00:32;;;;;;;5.93;1.52;;;27.50;63.20;;;;;;5010295;28;20037;-76
2023/05/29 11:03:10;;;;;;;2.33;1.20;;;27.60;63.30;;;;;;5005248;28;20034;-75
2023/05/29 11:06:23;;;;;;;4.65;1.30;;;27.50;63.90;;;;;;4989594;28;20029;-75
2023/05/29 11:09:45;;;;;;;2.35;1.52;;;27.60;62.10;;;;;;4995551;28;20425;-76
2023/05/29 11:13:00;;;;;;;3.10;1.35;;;27.80;62.10;;;;;;4906887;29;20408;-76
2023/05/29 11:15:29;;;;;;;3.28;1.48;;;27.50;61.50;;;;;;4851146;29;20063;-76
2023/05/29 11:23:12;;;;;;;3.75;1.13;;;27.80;62.30;;;;;;4793021;29;20042;-75
2023/05/29 11:25:51;;;;;;;2.83;1.20;;;27.40;62.30;;;;;;4782114;30;20448;-76
2023/05/29 11:28:16;;;;;;;2.92;1.50;;;27.90;62.10;;;;;;4772052;30;20048;-76
2023/05/29 11:30:48;;;;;;;2.35;0.80;;;27.80;63.40;;;;;;4786203;29;20053;-75
2023/05/29 11:33:27;;;;;;;4.65;1.27;;;27.90;61.80;;;;;;4790237;29;20060;-75
2023/05/29 11:39:11;;;;;;;7.28;1.45;;;28.00;61.20;;;;;;4849382;29;20094;-75
2023/05/29 11:42:29;;;;;;;2.10;1.17;;;28.20;60.80;;;;;;4850489;29;20053;-75
2023/05/29 11:44:55;;;;;;;3.45;1.20;;;28.50;60.70;;;;;;4815902;29;20126;-76
2023/05/29 11:47:27;;;;;;;2.75;1.38;;;28.20;60.00;;;;;;4897452;29;20140;-76
2023/05/29 11:50:33;;;;;;;2.22;1.30;;;28.50;59.50;;;;;;4952728;29;20050;-75
2023/05/29 11:53:08;;;;;;;4.38;1.25;;;28.50;59.70;;;;;;4947002;29;20043;-76
2023/05/29 11:55:40;;;;;;;6.50;1.58;;;28.30;60.40;;;;;;4980138;28;20387;-76
2023/05/29 11:58:06;;;;;;;3.22;1.52;;;28.70;59.40;;;;;;5008599;28;20048;-75
2023/05/29 12:00:51;;;;;;;4.20;1.55;;;28.50;58.70;;;;;;5013121;28;20153;-75
2023/05/29 12:03:23;;;;;;;3.25;1.35;;;28.70;59.10;;;;;;4985470;28;20132;-75
2023/05/29 12:05:55;;;;;;;2.70;1.25;;;28.70;58.90;;;;;;4973170;28;20339;-75
2023/05/29 12:08:51;;;;;;;4.95;1.30;;;28.70;58.40;;;;;;5007026;28;20038;-76
2023/05/29 12:11:26;;;;;;;3.55;1.00;;;28.90;58.60;;;;;;4990607;28;20389;-76
2023/05/29 12:14:28;;;;;;;4.97;1.27;;;29.20;57.40;;;;;;4999267;28;20030;-75
2023/05/29 12:16:54;;;;;;;4.03;1.60;;;29.10;57.60;;;;;;4909056;29;20072;-75
2023/05/29 12:20:06;;;;;;;2.47;0.95;;;28.60;57.40;;;;;;4991829;28;20084;-75
2023/05/29 12:22:37;;;;;;;2.47;1.10;;;28.60;56.60;;;;;;5007224;28;20087;-75
2023/05/29 12:25:44;;;;;;;3.13;1.48;;;28.60;57.90;;;;;;4991793;28;20041;-75
2023/05/29 12:28:22;;;;;;;3.28;1.23;;;28.80;56.40;;;;;;4925617;28;20646;-75
2023/05/29 12:31:08;;;;;;;2.88;1.10;;;28.80;57.40;;;;;;4973860;28;20066;-75
2023/05/29 12:33:49;;;;;;;3.45;1.60;;;29.10;56.60;;;;;;5009995;28;20489;-75
2023/05/29 12:36:51;;;;;;;5.32;1.15;;;29.00;56.70;;;;;;5008131;28;20679;-75
2023/05/29 12:39:17;;;;;;;21.23;1.92;;;29.50;56.20;;;;;;5005353;28;20378;-75
2023/05/29 12:42:01;;;;;;;3.10;1.10;;;29.50;54.50;;;;;;5007493;28;20092;-74
2023/05/29 12:44:38;;;;;;;2.25;1.13;;;29.80;55.30;;;;;;5012592;28;20034;-74
2023/05/29 12:47:04;;;;;;;4.47;1.33;;;29.90;55.20;;;;;;4989919;28;20104;-75
2023/05/29 12:49:42;;;;;;;3.15;1.60;;;29.80;54.00;;;;;;5012203;28;20489;-75
2023/05/29 12:52:26;;;;;;;2.13;1.00;;;29.10;53.90;;;;;;5007039;28;20072;-74
2023/05/29 12:55:04;;;;;;;1.75;1.00;;;29.30;53.80;;;;;;4998636;28;20464;-74
2023/05/29 12:57:50;;;;;;;4.32;1.13;;;29.70;55.00;;;;;;4988304;28;20038;-74
2023/05/29 13:00:28;;;;;;;3.13;1.30;;;30.10;55.20;;;;;;4995258;28;20137;-74
2023/05/29 13:03:01;;;;;;;5.05;1.27;;;30.20;53.60;;;;;;5006925;28;20034;-75
2023/05/29 13:06:02;;;;;;;4.82;1.45;;;30.60;52.70;;;;;;5012468;28;20109;-75
2023/05/29 13:08:28;;;;;;;3.53;0.90;;;30.30;52.70;;;;;;5006803;28;20037;-75
2023/05/29 13:10:53;;;;;;;3.38;1.38;;;30.40;52.70;;;;;;5009951;28;20076;-75
2023/05/29 13:13:20;;;;;;;2.72;1.10;;;30.90;51.70;;;;;;5008580;28;20436;-75
2023/05/29 13:15:48;;;;;;;2.95;1.23;;;31.20;51.20;;;;;;5011340;28;20022;-75
2023/05/29 13:18:49;;;;;;;2.85;1.27;;;31.40;50.80;;;;;;5007652;28;20041;-75
2023/05/29 13:21:21;;;;;;;2.10;1.00;;;30.10;50.70;;;;;;4897726;29;20253;-77
2023/05/29 13:24:25;;;;;;;1.42;0.80;;;30.60;51.40;;;;;;4916934;29;20047;-74
2023/05/29 13:27:00;;;;;;;2.10;1.23;;;31.50;50.20;;;;;;4921437;29;20047;-74
2023/05/29 13:29:26;;;;;;;2.60;1.10;;;31.40;50.30;;;;;;4931614;29;20039;-74
2023/05/29 13:31:52;;;;;;;6.75;1.70;;;31.20;50.10;;;;;;4911160;29;20135;-74
2023/05/29 13:34:28;;;;;;;2.13;1.20;;;30.10;49.50;;;;;;4931456;29;20504;-74
2023/05/29 13:37:12;;;;;;;3.78;1.40;;;30.70;50.90;;;;;;4948174;28;20386;-73
2023/05/29 13:40:24;;;;;;;3.05;0.80;;;30.80;50.50;;;;;;5011352;28;20037;-73
2023/05/29 13:42:50;;;;;;;5.75;1.55;;;30.60;50.70;;;;;;4986964;28;20132;-72
2023/05/29 13:45:22;;;;;;;4.43;1.05;;;31.30;49.60;;;;;;5011430;28;20501;-72
2023/05/29 13:47:54;;;;;;;2.58;1.10;;;32.20;49.10;;;;;;5006678;28;20042;-72
2023/05/29 13:50:24;;;;;;;3.25;1.23;;;32.60;48.70;;;;;;5011334;28;20117;-73
2023/05/29 13:52:53;;;;;;;2.33;1.15;;;34.30;47.10;;;;;;4985248;28;20038;-73
2023/05/29 13:56:06;;;;;;;2.70;1.02;;;34.70;45.80;;;;;;5008120;28;20034;-73
2023/05/29 13:58:32;;;;;;;2.00;0.90;;;34.50;45.30;;;;;;4919461;28;20048;-73
2023/05/29 14:01:08;;;;;;;1.80;0.73;;;33.40;47.00;;;;;;5008959;28;20389;-73
2023/05/29 14:04:00;;;;;;;1.23;0.80;;;35.00;45.50;;;;;;5009851;28;20034;-72
2023/05/29 14:06:33;;;;;;;2.40;0.95;;;35.00;45.20;;;;;;5005980;28;20497;-73
2023/05/29 14:09:43;;;;;;;2.05;0.88;;;35.90;43.50;;;;;;5010516;28;20042;-73
2023/05/29 14:12:09;;;;;;;3.50;1.70;;;36.10;43.80;;;;;;4971842;28;20050;-73
2023/05/29 14:14:35;;;;;;;2.80;1.23;;;35.60;42.70;;;;;;5010611;28;20034;-73
2023/05/29 14:17:16;;;;;;;1.88;1.17;;;34.30;43.80;;;;;;5005973;28;20137;-73
2023/05/29 14:19:41;;;;;;;3.60;1.13;;;34.20;44.70;;;;;;5010725;28;20485;-73